Relevés horaires Bierset (Belgique)


Relevés horaires à Bierset - Vendredi 03 Août 2018
Heure UTC1 Température [°C] Vent [km/h] Hum. [%] Pres.4 [hPa] Visi. [Km] Nébu. [octa] Préc.5 [mm] Cond.
2m. Res. Ros. Dir.2 Vit. Moy. Raf.3
23:00 24.1 24.1 13.1 N 1.9 3.7 5.6 50 1019.4(0.3/3h) 30 3/8 -- --
22:00 24.5 24.5 14.0 N 3.7 5.6 7.4 52 1019.5(0.9/3h) 30 0/8 -- --
21:00 25.9 25.9 13.6 N 3.7 7.4 11.1 47 1019.3(0.9/3h) 30 0/8 -- --
20:00 27.4 27.4 13.8 N 3.7 5.6 7.4 43 1018.8(0.6/3h) 35 3/8 -- --
19:00 29.5 29.5 13.3 N 5.6 7.4 11.1 37 1018.2(-0.2/3h) 35 3/8 -- --
18:00 31.5 31.5 13.1 N 7.4 7.4 13.0 33 1018(-0.6/3h) 35 5/8 0/12h
--
17:00 32.3 32.3 12.6 NNO 5.6 7.4 13.0 30 1017.9(-1.1/3h) 35 2/8 -- --
16:00 32.8 32.8 12.5 N 7.4 7.4 11.1 29 1018.2(-1.4/3h) 35 2/8 -- --
15:00 32.6 32.6 12.7 NO 5.6 7.4 13.0 30 1018.5(-1.6/3h) 35 2/8 -- --
14:00 32.7 32.7 12.8 NNO 3.7 7.4 13.0 30 1019(-1.7/3h) 20 0/8 -- --
13:00 32.1 32.1 13.1 N 7.4 7.4 13.0 32 1019.7(-1.4/3h) 20 0/8 -- --
12:00 31.6 31.6 13.2 NE 5.6 7.4 13.0 33 1020.2(-1.3/3h) 20 0/8 0/6h
--
11:00 30.2 30.2 13.5 N 7.4 7.4 13.0 36 1020.9(-1.1/3h) 20 0/8 -- --
10:00 29.1 29.1 13.8 NE 7.4 7.4 13.0 39 1021.3(-0.7/3h) 20 0/8 -- --
09:00 27.0 27.0 14.4 NNE 3.7 3.7 5.6 46 1021.8(-0.3/3h) 20 0/8 -- --
08:00 23.7 23.7 15.2 NNE 1.9 3.7 5.6 59 1022.5(0.2/3h) 20 0/8 -- --
07:00 21.2 21.2 14.9 N 3.7 3.7 5.6 67 1022.6(-0.1/3h) 30 0/8 -- --
06:00 19.0 19.0 14.5 N 1.9 3.7 3.7 75 1022.6(0.0/3h) 30 0/8 0/12h
--
05:00 17.6 17.6 13.8 N 1.9 1.9 3.7 78 1022.7(-0.1/3h) 30 0/8 -- --
04:00 17.5 17.5 13.8 N 1.9 3.7 3.7 79 1022.8(-0.1/3h) 30 0/8 -- --
03:00 19.0 19.0 13.8 NNO 1.9 1.9 3.7 72 1022.6(-0.6/3h) 30 0/8 -- --
02:00 18.9 18.9 13.9 ONO 1.9 1.9 1.9 73 1022.8(-0.7/3h) 30 0/8 -- --
01:00 19.8 19.8 13.8 O 1.9 1.9 3.7 68 1022.7(-0.6/3h) 30 0/8 -- --
00:00 20.8 20.8 14.6 NO 1.9 5.6 9.3 68 1023.1(0.2/3h) 30 0/8 0/6h
0/24h
--

1 Coordinated Universal Time. Actuellement il est 11:00 locale et 09:00 UTC.

2 Le vent souffle depuis la direction indiquée vers la direction oposée.

3 Les rafales max. sont disponible 40 min après l'heure du relevé.

4 Pour les stations d'altitude (plus de 600m) le géopotentiel du niveau le plus proche de la pression obligatoire est indiqué.

5 Les stations disposant d'un diffuseur peuvent indiquer "trace". Cela signifie que des précipitations ont touchés le sol mais que la quantité est inférieure à 0.1 mm.

Récapitulatif de la journée
Température [°C] Vent [km/h] Ensoleillement4 [h] Precipitations totale5 [mm] Pression [Hpa]
Min1 Max.2 Moy.3 Max. Min Max.
17.2 33.4 5.3 13.0 0 h 0 min 0 1017.9 1023.1

1 Température minimale relevée entre 18:00 UTC la veille et 18:00 UTC le jour donné.

2 Température maximale relevée entre 06:00 UTC le jour donné et 06:00 UTC le lendemain.

3 Vent moyen de la journée basé sur les relevés horaires.

4 Ensoleillement en heures relevé entre 06:00 UTC la veille et 06:00 UTC le jour donné.

5 Précipitations totales tombées entre 06:00 UTC la jour donné et 06:00 UTC le lendemain.

Graphiques horaires